Terminal Aerodrome Forecast
Issued by NWS

Home | Current Version | Previous Version | Text Only | Print | Product List | Glossary On
Versions: 1 2 3 4 5 6 7 8 9 10 11 12 13 14 15 16 17 18 19
000
FTUS42 TJSJ 302300 RRA
TAFIST
TAF
TIST 302341Z 3100/3124 10006KT P6SM VCSH SCT030 SCT060
     FM311300 13012KT P6SM SCT025
     FM312300 09008KT P6SM FEW025=

USA.gov is the U.S. government's official web portal to all federal, state and local government web resources and services.